Time;durP1;ratioP1;P1;durP2;ratioP2;P2;SDS_P1;SDS_P2;PMS_P1;PMS_P2;Temp;Humidity;BMP_temperature;BMP_pressure;BME280_temperature;BME280_humidity;BME280_pressure;Samples;Min_cycle;Max_cycle;Signal;HPM_P1;HPM_P2
2022/04/25 06:01:07;;;;;;;18.10;5.65;;;;;;;;;;5743579;22;20482;-75
2022/04/25 06:03:38;;;;;;;22.27;6.18;;;;;;;;;;5015887;28;20112;-76
2022/04/25 06:06:06;;;;;;;16.08;5.63;;;;;;;;;;5013636;28;20042;-77
2022/04/25 06:08:36;;;;;;;21.70;6.38;;;;;;;;;;5014174;28;20496;-76
2022/04/25 06:11:04;;;;;;;16.65;5.30;;;;;;;;;;5014394;28;20403;-76
2022/04/25 06:13:31;;;;;;;14.88;4.60;;;;;;;;;;5013977;28;20492;-77
2022/04/25 06:16:02;;;;;;;16.45;4.80;;;;;;;;;;5032474;28;20365;-76
2022/04/25 06:18:32;;;;;;;18.20;5.25;;;;;;;;;;5033746;28;20500;-77
2022/04/25 06:20:59;;;;;;;15.93;4.80;;;;;;;;;;5033629;28;20355;-76
2022/04/25 06:23:32;;;;;;;16.00;4.53;;;;;;;;;;5033665;28;20120;-75
2022/04/25 06:26:02;;;;;;;15.25;5.65;;;;;;;;;;5033960;28;20041;-76
2022/04/25 06:28:30;;;;;;;12.70;4.95;;;;;;;;;;5033822;28;20048;-76
2022/04/25 06:30:58;;;;;;;10.85;4.43;;;;;;;;;;5033581;28;20069;-75
2022/04/25 06:33:26;;;;;;;11.73;5.32;;;;;;;;;;5033613;28;20068;-75
2022/04/25 06:35:55;;;;;;;14.77;4.70;;;;;;;;;;5033711;28;20051;-75
2022/04/25 06:38:23;;;;;;;15.77;5.22;;;;;;;;;;5033752;28;20435;-76
2022/04/25 06:40:52;;;;;;;14.88;5.93;;;;;;;;;;5033411;28;20069;-75
2022/04/25 06:43:20;;;;;;;17.58;8.43;;;;;;;;;;5033467;28;20045;-75
2022/04/25 06:45:54;;;;;;;15.35;5.55;;;;;;;;;;5033331;28;20545;-77
2022/04/25 06:48:22;;;;;;;11.57;5.13;;;;;;;;;;5033998;28;20042;-77
2022/04/25 06:51:18;;;;;;;12.40;4.57;;;;;;;;;;5033523;28;20049;-76
2022/04/25 06:53:48;;;;;;;12.95;5.82;;;;;;;;;;5029908;28;20050;-76
2022/04/25 06:56:18;;;;;;;10.88;5.43;;;;;;;;;;5033297;28;20045;-75
2022/04/25 06:58:50;;;;;;;13.70;5.30;;;;;;;;;;5019995;28;20127;-75
2022/04/25 07:01:20;;;;;;;14.07;5.57;;;;;;;;;;5019839;28;20052;-75
2022/04/25 07:04:14;;;;;;;12.07;5.78;;;;;;;;;;5015923;28;20050;-78
2022/04/25 07:06:59;;;;;;;13.05;5.72;;;;;;;;;;5013417;28;20129;-75
2022/04/25 07:09:47;;;;;;;12.90;5.82;;;;;;;;;;4997592;28;20081;-75
2022/04/25 07:12:27;;;;;;;11.48;5.60;;;;;;;;;;5012916;28;20069;-74
2022/04/25 07:14:54;;;;;;;11.70;5.60;;;;;;;;;;4995254;28;20042;-75
2022/04/25 07:17:24;;;;;;;12.15;5.97;;;;;;;;;;5012723;28;20474;-75
2022/04/25 07:19:53;;;;;;;9.00;6.00;;;;;;;;;;5012647;28;20093;-76
2022/04/25 07:30:43;;;;;;;9.80;5.80;;;;;;;;;;5012465;28;20046;-76
2022/04/25 07:33:14;;;;;;;11.98;5.47;;;;;;;;;;5012471;28;20045;-75
2022/04/25 07:35:41;;;;;;;10.52;5.60;;;;;;;;;;5012122;28;20073;-76
2022/04/25 07:38:10;;;;;;;11.52;5.57;;;;;;;;;;5012525;28;20427;-75
2022/04/25 07:40:41;;;;;;;13.02;5.60;;;;;;;;;;5012338;28;20050;-77
2022/04/25 07:43:11;;;;;;;13.57;5.30;;;;;;;;;;5031723;28;20057;-76
2022/04/25 07:45:39;;;;;;;8.82;5.40;;;;;;;;;;5032180;28;20395;-78
2022/04/25 07:48:12;;;;;;;14.00;7.10;;;;;;;;;;5014870;28;20053;-77
2022/04/25 07:50:44;;;;;;;13.43;6.10;;;;;;;;;;5032060;28;20053;-76
2022/04/25 07:53:17;;;;;;;10.52;5.70;;;;;;;;;;5031733;28;20041;-76
2022/04/25 07:55:47;;;;;;;11.77;5.38;;;;;;;;;;5028951;28;20462;-77
2022/04/25 07:58:34;;;;;;;13.30;5.70;;;;;;;;;;5025433;28;20034;-77
2022/04/25 08:01:18;;;;;;;10.93;5.05;;;;;;;;;;5014804;28;20045;-76
2022/04/25 08:03:45;;;;;;;10.10;5.47;;;;;;;;;;4997021;28;20570;-77
2022/04/25 08:06:21;;;;;;;9.30;4.78;;;;;;;;;;5013118;28;20057;-78
2022/04/25 08:08:58;;;;;;;9.20;5.15;;;;;;;;;;5024099;28;20495;-77
2022/04/25 08:17:56;;;;;;;10.25;5.22;;;;;;;;;;5016072;28;20049;-80
2022/04/25 08:20:21;;;;;;;8.38;4.63;;;;;;;;;;5036162;28;20518;-78
2022/04/25 08:22:54;;;;;;;9.15;4.82;;;;;;;;;;5038061;28;20091;-78
2022/04/25 08:25:30;;;;;;;11.13;4.53;;;;;;;;;;5037476;28;20037;-79
2022/04/25 08:28:12;;;;;;;16.17;5.60;;;;;;;;;;5036581;28;20140;-78
2022/04/25 08:31:10;;;;;;;10.32;4.32;;;;;;;;;;5037338;28;20439;-77
2022/04/25 08:37:47;;;;;;;;;;;;;;;;;;;;;
2022/04/25 08:40:56;;;;;;;10.90;4.97;;;;;;;;;;5016312;28;20065;-78
2022/04/25 08:43:54;;;;;;;9.95;5.82;;;;;;;;;;5031512;28;20452;-78
2022/04/25 08:46:33;;;;;;;10.85;5.88;;;;;;;;;;5018565;28;20491;-77
2022/04/25 08:49:18;;;;;;;10.00;5.30;;;;;;;;;;5034649;28;20049;-76
2022/04/25 08:51:47;;;;;;;10.20;5.70;;;;;;;;;;5035232;28;20412;-75
2022/04/25 08:54:15;;;;;;;9.63;5.38;;;;;;;;;;5023606;28;20049;-74
2022/04/25 08:56:43;;;;;;;16.67;5.38;;;;;;;;;;5017230;28;20050;-76
2022/04/25 08:59:11;;;;;;;13.07;5.00;;;;;;;;;;4997934;28;20041;-75
2022/04/25 09:01:41;;;;;;;10.07;4.70;;;;;;;;;;5017392;28;20096;-77
2022/04/25 09:04:09;;;;;;;13.52;5.47;;;;;;;;;;5015080;28;20493;-75
2022/04/25 09:06:37;;;;;;;8.45;5.07;;;;;;;;;;5015425;28;20056;-74
2022/04/25 09:09:04;;;;;;;18.17;13.45;;;;;;;;;;5015171;28;20046;-74
2022/04/25 09:14:18;;;;;;;12.30;4.70;;;;;;;;;;5015345;28;20041;-76
2022/04/25 09:16:46;;;;;;;9.85;4.57;;;;;;;;;;5015889;28;20057;-75
2022/04/25 09:19:14;;;;;;;9.75;5.25;;;;;;;;;;5014996;28;20100;-76
2022/04/25 09:21:42;;;;;;;11.35;5.30;;;;;;;;;;5015099;28;20042;-75
2022/04/25 09:24:47;;;;;;;8.52;3.90;;;;;;;;;;5015261;28;20037;-75
2022/04/25 09:27:19;;;;;;;13.73;4.82;;;;;;;;;;4990323;28;20048;-75
2022/04/25 09:29:48;;;;;;;14.30;4.63;;;;;;;;;;5014765;28;20096;-75
2022/04/25 09:32:19;;;;;;;10.80;4.35;;;;;;;;;;5014949;28;20038;-75
2022/04/25 09:35:05;;;;;;;6.78;4.22;;;;;;;;;;5015018;28;20436;-75
2022/04/25 09:37:40;;;;;;;8.13;4.25;;;;;;;;;;5014792;28;20050;-76
2022/04/25 09:40:22;;;;;;;9.52;4.03;;;;;;;;;;5017356;28;20048;-75
2022/04/25 09:43:05;;;;;;;10.15;4.25;;;;;;;;;;5033610;28;20045;-76
2022/04/25 09:45:33;;;;;;;14.50;5.97;;;;;;;;;;5033778;28;20432;-82
2022/04/25 09:48:01;;;;;;;11.43;4.60;;;;;;;;;;5034231;28;20041;-82
2022/04/25 09:50:29;;;;;;;17.02;6.97;;;;;;;;;;5035080;28;20491;-84
2022/04/25 09:53:13;;;;;;;14.40;5.80;;;;;;;;;;5035631;28;20503;-86
2022/04/25 09:55:41;;;;;;;8.30;3.40;;;;;;;;;;5035620;28;20049;-86
2022/04/25 09:58:23;;;;;;;11.85;4.22;;;;;;;;;;5035672;28;20091;-84
2022/04/25 10:00:53;;;;;;;9.27;3.58;;;;;;;;;;5036514;28;20542;-84
2022/04/25 10:03:33;;;;;;;14.73;3.35;;;;;;;;;;5038085;28;20064;-86
2022/04/25 10:06:03;;;;;;;11.07;3.35;;;;;;;;;;5036187;28;20049;-83
2022/04/25 10:08:35;;;;;;;12.02;4.43;;;;;;;;;;5035631;28;20120;-85
2022/04/25 10:11:04;;;;;;;12.18;3.70;;;;;;;;;;5001986;28;20496;-85
2022/04/25 10:13:33;;;;;;;9.48;3.10;;;;;;;;;;5035442;28;20045;-84
2022/04/25 10:16:03;;;;;;;14.20;3.63;;;;;;;;;;5034370;28;20096;-83
2022/04/25 10:18:34;;;;;;;8.57;3.38;;;;;;;;;;5033936;28;20091;-83
2022/04/25 10:21:04;;;;;;;11.63;3.88;;;;;;;;;;5034537;28;20107;-84
2022/04/25 10:23:36;;;;;;;12.07;4.30;;;;;;;;;;5034573;28;20096;-85
2022/04/25 10:26:06;;;;;;;9.77;3.70;;;;;;;;;;5029083;28;20396;-85
2022/04/25 10:28:34;;;;;;;11.95;3.20;;;;;;;;;;5015828;28;20491;-85
2022/04/25 10:31:06;;;;;;;8.75;3.90;;;;;;;;;;5014327;28;20042;-82
2022/04/25 10:33:49;;;;;;;12.50;3.00;;;;;;;;;;5014550;28;20077;-74
2022/04/25 10:36:36;;;;;;;9.63;3.00;;;;;;;;;;5011801;28;20492;-75
2022/04/25 10:39:27;;;;;;;12.10;3.40;;;;;;;;;;5011065;28;20034;-75
2022/04/25 10:44:56;;;;;;;11.38;3.30;;;;;;;;;;4994656;28;20050;-75
2022/04/25 10:47:29;;;;;;;10.35;3.03;;;;;;;;;;5013479;28;20424;-75
2022/04/25 10:49:57;;;;;;;8.00;3.00;;;;;;;;;;5013957;28;20042;-75
2022/04/25 10:52:41;;;;;;;9.25;3.17;;;;;;;;;;5013954;28;20132;-75
2022/04/25 10:55:23;;;;;;;11.00;3.72;;;;;;;;;;5013554;28;20132;-75
2022/04/25 10:58:05;;;;;;;10.38;2.90;;;;;;;;;;5014271;28;20046;-75
2022/04/25 11:00:46;;;;;;;10.35;3.17;;;;;;;;;;5013596;28;20427;-75
2022/04/25 11:03:15;;;;;;;28.30;4.28;;;;;;;;;;5013293;28;20053;-75
2022/04/25 11:06:04;;;;;;;12.98;4.45;;;;;;;;;;5013373;28;20061;-75
2022/04/25 11:08:35;;;;;;;12.88;6.28;;;;;;;;;;5013743;28;20049;-75
2022/04/25 11:11:05;;;;;;;8.02;3.58;;;;;;;;;;5013635;28;20129;-74
2022/04/25 11:13:36;;;;;;;8.65;3.03;;;;;;;;;;5013407;28;20104;-76
2022/04/25 11:16:15;;;;;;;7.57;2.70;;;;;;;;;;5012949;28;20045;-75
2022/04/25 11:18:45;;;;;;;10.75;2.90;;;;;;;;;;5013277;28;20046;-74
2022/04/25 11:21:19;;;;;;;7.70;2.90;;;;;;;;;;5013622;28;20120;-75
2022/04/25 11:23:51;;;;;;;8.35;2.97;;;;;;;;;;5013675;28;20045;-76
2022/04/25 11:26:26;;;;;;;9.38;3.28;;;;;;;;;;5013637;28;20042;-74
2022/04/25 11:29:19;;;;;;;11.35;3.30;;;;;;;;;;5014001;28;20069;-76
2022/04/25 11:32:12;;;;;;;8.85;3.05;;;;;;;;;;5013760;28;20054;-75
2022/04/25 11:35:05;;;;;;;10.38;3.00;;;;;;;;;;5013756;28;20062;-76
2022/04/25 11:37:39;;;;;;;9.80;2.95;;;;;;;;;;5013347;28;20046;-76
2022/04/25 11:40:20;;;;;;;8.07;2.97;;;;;;;;;;5012996;28;20046;-76
2022/04/25 11:42:48;;;;;;;11.10;3.17;;;;;;;;;;5013474;28;20092;-77
2022/04/25 11:45:41;;;;;;;9.48;3.78;;;;;;;;;;5013971;28;20050;-78
2022/04/25 11:52:35;;;;;;;8.93;2.75;;;;;;;;;;5016758;28;20136;-77
2022/04/25 11:55:04;;;;;;;12.35;3.15;;;;;;;;;;5016447;28;20408;-75
2022/04/25 11:57:57;;;;;;;10.27;3.30;;;;;;;;;;5017011;28;20050;-75
2022/04/25 12:00:25;;;;;;;7.10;2.60;;;;;;;;;;5016748;28;20081;-75
2022/04/25 12:02:53;;;;;;;13.30;4.13;;;;;;;;;;5015319;28;20072;-75
2022/04/25 12:05:30;;;;;;;8.07;3.00;;;;;;;;;;5015116;28;20073;-74
2022/04/25 12:16:39;;;;;;;10.55;2.90;;;;;;;;;;5014907;28;20496;-75
2022/04/25 12:19:11;;;;;;;13.77;3.50;;;;;;;;;;5014840;28;20056;-76
2022/04/25 12:22:04;;;;;;;14.07;3.47;;;;;;;;;;5015485;28;20107;-75
2022/04/25 12:24:33;;;;;;;11.73;2.75;;;;;;;;;;5015229;28;20085;-75
2022/04/25 12:27:10;;;;;;;10.60;2.72;;;;;;;;;;5014657;28;20049;-76
2022/04/25 12:29:42;;;;;;;8.45;2.58;;;;;;;;;;5014633;28;20050;-75
2022/04/25 12:32:22;;;;;;;16.67;3.30;;;;;;;;;;4997274;28;20062;-75
2022/04/25 12:34:50;;;;;;;6.50;2.70;;;;;;;;;;5015048;28;20042;-77
2022/04/25 12:37:48;;;;;;;11.52;2.75;;;;;;;;;;5014731;28;20042;-74
2022/04/25 12:40:22;;;;;;;12.02;2.70;;;;;;;;;;5014878;28;20064;-76
2022/04/25 12:42:54;;;;;;;11.43;3.08;;;;;;;;;;5014892;28;20080;-75
2022/04/25 12:45:22;;;;;;;9.03;2.70;;;;;;;;;;5073117;23;235176;-75
2022/04/25 12:47:57;;;;;;;9.85;2.60;;;;;;;;;;5034257;28;20042;-75
2022/04/25 12:50:44;;;;;;;13.27;3.10;;;;;;;;;;5035634;28;20044;-76
2022/04/25 12:53:12;;;;;;;14.90;3.85;;;;;;;;;;5035685;28;20029;-76
2022/04/25 12:55:46;;;;;;;11.13;2.88;;;;;;;;;;5035625;28;20048;-76
2022/04/25 12:58:14;;;;;;;10.43;3.42;;;;;;;;;;5035362;28;20543;-76
2022/04/25 13:00:45;;;;;;;11.13;2.70;;;;;;;;;;5035511;28;20348;-75
2022/04/25 13:03:33;;;;;;;11.75;2.70;;;;;;;;;;5035181;28;20047;-76
2022/04/25 13:06:01;;;;;;;13.25;2.75;;;;;;;;;;5035242;28;20103;-75
2022/04/25 13:08:29;;;;;;;11.50;3.15;;;;;;;;;;5035220;28;20042;-75
2022/04/25 13:10:56;;;;;;;10.60;2.58;;;;;;;;;;5035334;28;20111;-75
2022/04/25 13:13:23;;;;;;;15.57;2.95;;;;;;;;;;5035250;28;20056;-75
2022/04/25 13:15:51;;;;;;;13.98;2.92;;;;;;;;;;5017625;28;20041;-74
2022/04/25 13:18:21;;;;;;;20.05;2.92;;;;;;;;;;5035273;28;20068;-75
2022/04/25 13:20:52;;;;;;;13.13;2.85;;;;;;;;;;5035266;28;20056;-76
2022/04/25 13:23:19;;;;;;;7.35;2.55;;;;;;;;;;5034896;28;20041;-76
2022/04/25 13:25:47;;;;;;;9.57;2.85;;;;;;;;;;5034853;28;20065;-76
2022/04/25 13:28:17;;;;;;;10.60;2.38;;;;;;;;;;5034640;28;20052;-75
2022/04/25 13:30:44;;;;;;;11.90;3.15;;;;;;;;;;5034835;28;20140;-76
2022/04/25 13:33:12;;;;;;;13.23;2.72;;;;;;;;;;5034923;28;20468;-77
2022/04/25 13:35:39;;;;;;;9.15;2.53;;;;;;;;;;5016766;28;20049;-76
2022/04/25 13:38:07;;;;;;;9.50;2.47;;;;;;;;;;5016473;28;20129;-75
2022/04/25 13:40:39;;;;;;;9.50;2.30;;;;;;;;;;5034424;28;20095;-75
2022/04/25 13:43:08;;;;;;;11.90;2.60;;;;;;;;;;5034752;28;20069;-75
2022/04/25 13:45:38;;;;;;;19.98;9.43;;;;;;;;;;5016355;28;20454;-77
2022/04/25 13:48:09;;;;;;;17.63;3.22;;;;;;;;;;5017167;28;20042;-77
2022/04/25 13:50:36;;;;;;;9.93;2.42;;;;;;;;;;5034865;28;20041;-76
2022/04/25 13:53:06;;;;;;;9.20;2.00;;;;;;;;;;5034074;28;20068;-75
2022/04/25 13:55:40;;;;;;;8.88;2.45;;;;;;;;;;5034367;28;20041;-77
2022/04/25 13:58:10;;;;;;;7.80;1.90;;;;;;;;;;5016659;28;20099;-77
2022/04/25 14:00:37;;;;;;;8.55;2.97;;;;;;;;;;5017818;28;20565;-77
2022/04/25 14:03:05;;;;;;;9.70;2.63;;;;;;;;;;5034062;28;20112;-76
2022/04/25 14:05:37;;;;;;;6.53;2.15;;;;;;;;;;5018013;28;20108;-77
2022/04/25 14:08:06;;;;;;;11.00;3.63;;;;;;;;;;5034613;28;20079;-75
2022/04/25 14:10:36;;;;;;;11.50;2.63;;;;;;;;;;5034749;28;20442;-76
2022/04/25 14:13:11;;;;;;;6.13;1.70;;;;;;;;;;5033425;28;20049;-76
2022/04/25 14:15:51;;;;;;;13.52;2.50;;;;;;;;;;5017218;28;20065;-76
2022/04/25 14:18:36;;;;;;;8.52;2.08;;;;;;;;;;5032437;28;20056;-77
2022/04/25 14:21:12;;;;;;;8.85;2.20;;;;;;;;;;5033725;28;20049;-76
2022/04/25 14:23:40;;;;;;;11.88;2.08;;;;;;;;;;5033891;28;20557;-75
2022/04/25 14:26:09;;;;;;;8.77;2.53;;;;;;;;;;5033583;28;20046;-76
2022/04/25 14:28:40;;;;;;;6.65;2.38;;;;;;;;;;5016038;28;20169;-77
2022/04/25 14:31:36;;;;;;;10.77;2.45;;;;;;;;;;5027850;28;20036;-75
2022/04/25 14:34:14;;;;;;;9.37;2.20;;;;;;;;;;5013978;28;20042;-75
2022/04/25 14:40:02;;;;;;;6.50;2.10;;;;;;;;;;5013614;28;20046;-76
2022/04/25 14:42:55;;;;;;;7.60;2.00;;;;;;;;;;5012810;28;20048;-75
2022/04/25 14:45:27;;;;;;;6.43;2.20;;;;;;;;;;5012342;28;20061;-76
2022/04/25 14:48:00;;;;;;;8.00;2.33;;;;;;;;;;4974230;28;20035;-77
2022/04/25 14:57:21;;;;;;;13.65;3.08;;;;;;;;;;4973856;28;20053;-76
2022/04/25 15:00:15;;;;;;;8.40;2.45;;;;;;;;;;4973001;28;20047;-77
2022/04/25 15:02:43;;;;;;;7.88;2.65;;;;;;;;;;4973701;28;20047;-75
2022/04/25 15:05:14;;;;;;;6.40;2.00;;;;;;;;;;4974081;28;20035;-75
2022/04/25 15:08:08;;;;;;;8.85;2.22;;;;;;;;;;4975009;28;20067;-78
2022/04/25 15:11:05;;;;;;;5.22;1.83;;;;;;;;;;4974449;28;20058;-75
2022/04/25 15:13:58;;;;;;;8.98;2.10;;;;;;;;;;4973769;28;20405;-76
2022/04/25 15:16:52;;;;;;;5.60;2.30;;;;;;;;;;4974824;28;20042;-77
2022/04/25 15:19:47;;;;;;;4.93;1.92;;;;;;;;;;4974212;28;20043;-76
2022/04/25 15:22:17;;;;;;;7.72;2.03;;;;;;;;;;4973163;28;20585;-77
2022/04/25 15:25:09;;;;;;;7.53;2.00;;;;;;;;;;4977813;28;20047;-77
2022/04/25 15:28:08;;;;;;;8.52;2.70;;;;;;;;;;4978569;28;20069;-77
2022/04/25 15:31:00;;;;;;;5.47;1.92;;;;;;;;;;4978704;28;20105;-76
2022/04/25 15:33:56;;;;;;;8.00;2.13;;;;;;;;;;4978207;28;20047;-76
2022/04/25 15:36:27;;;;;;;9.20;2.20;;;;;;;;;;4978186;28;20042;-75
2022/04/25 15:38:55;;;;;;;12.40;5.25;;;;;;;;;;4978067;28;20138;-77
2022/04/25 15:41:48;;;;;;;7.75;1.80;;;;;;;;;;4978344;28;20509;-76
2022/04/25 15:44:47;;;;;;;8.35;2.08;;;;;;;;;;4978170;28;20118;-76
2022/04/25 15:47:18;;;;;;;8.73;2.67;;;;;;;;;;4992087;28;20062;-76
2022/04/25 15:53:06;;;;;;;8.82;2.20;;;;;;;;;;4997385;28;20046;-75
2022/04/25 15:58:25;;;;;;;6.20;1.92;;;;;;;;;;4997438;28;20050;-76
2022/04/25 16:00:56;;;;;;;6.82;2.10;;;;;;;;;;4997213;28;20038;-76
2022/04/25 16:03:25;;;;;;;7.97;2.22;;;;;;;;;;4997253;28;20390;-76
2022/04/25 16:06:18;;;;;;;5.28;1.70;;;;;;;;;;4996887;28;20046;-76
2022/04/25 16:08:52;;;;;;;6.82;2.17;;;;;;;;;;4997058;28;20500;-77
2022/04/25 16:11:20;;;;;;;4.22;1.80;;;;;;;;;;5005448;28;20468;-76
2022/04/25 16:13:48;;;;;;;5.97;1.77;;;;;;;;;;5011828;28;20374;-78
2022/04/25 16:16:15;;;;;;;8.80;2.00;;;;;;;;;;5015076;28;20049;-77
2022/04/25 16:18:45;;;;;;;7.57;2.47;;;;;;;;;;5016361;28;20554;-74
2022/04/25 16:21:14;;;;;;;4.53;2.15;;;;;;;;;;5016145;28;20046;-76
2022/04/25 16:23:41;;;;;;;7.03;2.20;;;;;;;;;;5016358;28;20042;-77
2022/04/25 16:26:10;;;;;;;6.82;2.47;;;;;;;;;;5016441;28;20041;-76
2022/04/25 16:28:39;;;;;;;5.45;2.10;;;;;;;;;;5016042;28;20053;-79
2022/04/25 16:31:07;;;;;;;6.32;2.30;;;;;;;;;;5016274;28;20073;-80
2022/04/25 16:33:36;;;;;;;7.78;2.20;;;;;;;;;;5016368;28;20125;-79
2022/04/25 16:36:07;;;;;;;6.90;2.72;;;;;;;;;;5014833;28;20511;-74
2022/04/25 16:38:34;;;;;;;7.97;2.70;;;;;;;;;;5015937;28;20042;-74
2022/04/25 16:41:02;;;;;;;7.88;2.72;;;;;;;;;;5014412;28;20046;-76
2022/04/25 16:43:29;;;;;;;8.40;2.47;;;;;;;;;;5014472;28;20080;-76
2022/04/25 16:45:59;;;;;;;5.45;2.45;;;;;;;;;;5015818;28;20058;-76
2022/04/25 16:48:49;;;;;;;10.35;4.88;;;;;;;;;;5035711;28;20045;-75
2022/04/25 16:54:54;;;;;;;7.35;3.00;;;;;;;;;;4985220;28;20080;-76
2022/04/25 16:57:22;;;;;;;6.88;2.85;;;;;;;;;;5035331;28;20049;-75
2022/04/25 16:59:53;;;;;;;7.30;3.05;;;;;;;;;;5035087;28;20056;-76
2022/04/25 17:02:21;;;;;;;8.75;2.88;;;;;;;;;;5017650;28;20124;-75
2022/04/25 17:04:49;;;;;;;7.32;2.60;;;;;;;;;;5034628;28;20092;-76
2022/04/25 17:07:21;;;;;;;9.90;3.53;;;;;;;;;;5034512;28;20088;-75
2022/04/25 17:09:58;;;;;;;9.93;2.92;;;;;;;;;;5034732;28;20443;-76
2022/04/25 17:12:28;;;;;;;9.35;2.70;;;;;;;;;;5035009;28;20080;-76
2022/04/25 17:15:04;;;;;;;10.43;2.42;;;;;;;;;;5035483;28;20045;-75
2022/04/25 17:17:34;;;;;;;9.00;3.60;;;;;;;;;;5035078;28;20045;-77
2022/04/25 17:20:02;;;;;;;8.13;2.95;;;;;;;;;;5034817;28;20041;-76
2022/04/25 17:22:29;;;;;;;10.38;3.17;;;;;;;;;;5034959;28;20120;-76
2022/04/25 17:25:05;;;;;;;9.15;2.58;;;;;;;;;;5034892;28;20037;-76
2022/04/25 17:27:33;;;;;;;9.82;2.50;;;;;;;;;;5034861;28;20037;-76
2022/04/25 17:30:04;;;;;;;5.47;1.95;;;;;;;;;;5035477;28;20061;-75
2022/04/25 17:35:23;;;;;;;5.60;2.35;;;;;;;;;;5034466;28;20488;-77
